SFO weather

San Francisco International Airport
San Francisco, California, United States

Public forecast

Using degrees Fahrenheit for public forecast. Weather courtesy of forecast.io.

METAR (pilot weather report)

Retrieved 2017/04/24 08:56 UTC (12 minutes ago):

KSFO 240856Z 28018KT 10SM FEW010 SCT180 12/08 A3003

TAF (pilot weather forecast)

Retrieved 2017/04/24 06:45 UTC (2 hours ago):

TAF KSFO 240541Z 2406/2512 27025G30KT P6SM FEW008 SCT018 BKN180 FM241000 27015G21KT P6SM FEW008 SCT018 BKN150 FM241600 27015KT P6SM SCT020 BKN150 FM242000 27015G23KT P6SM -RA OVC050 FM250000 27015G23KT P6SM VCSH SCT040 OVC060 FM250500 26018KT P6SM SCT025 OVC060